Time;durP1;ratioP1;P1;durP2;ratioP2;P2;SDS_P1;SDS_P2;PMS_P1;PMS_P2;Temp;Humidity;BMP_temperature;BMP_pressure;BME280_temperature;BME280_humidity;BME280_pressure;Samples;Min_cycle;Max_cycle;Signal;HPM_P1;HPM_P2
2022/01/01 00:00:54;;;;;;;81.30;45.00;;;;;;;3.46;96.31;100597.16;1408834;87;21390;-86
2022/01/01 00:03:21;;;;;;;88.30;43.43;;;;;;;3.46;96.62;100605.84;1392120;88;21621;-86
2022/01/01 00:05:48;;;;;;;81.53;39.90;;;;;;;3.48;96.85;100611.84;1408913;87;22131;-86
2022/01/01 00:08:16;;;;;;;67.77;38.80;;;;;;;3.49;96.86;100615.28;1408836;87;22055;-86
2022/01/01 00:10:43;;;;;;;72.57;41.30;;;;;;;3.46;97.29;100590.15;1409117;87;22101;-87
2022/01/01 00:13:13;;;;;;;85.53;45.57;;;;;;;3.46;97.29;100590.15;1408895;87;21361;-86
2022/01/01 00:15:40;;;;;;;73.10;41.93;;;;;;;3.55;97.49;100586.10;1407643;87;22047;-86
2022/01/01 00:18:07;;;;;;;84.43;44.53;;;;;;;3.59;97.65;100594.95;1408964;87;22202;-86
2022/01/01 00:20:35;;;;;;;76.13;43.87;;;;;;;3.71;98.11;100563.69;1408877;87;21271;-86
2022/01/01 00:23:02;;;;;;;69.30;38.17;;;;;;;3.71;98.11;100563.69;1408539;87;21426;-86
2022/01/01 00:25:29;;;;;;;79.73;42.17;;;;;;;3.76;97.83;100566.84;1408303;87;21865;-86
2022/01/01 00:27:56;;;;;;;79.23;41.37;;;;;;;3.79;97.75;100546.53;1408398;87;21942;-87
2022/01/01 00:30:23;;;;;;;62.97;38.93;;;;;;;3.83;97.70;100542.52;1408190;87;21332;-86
2022/01/01 00:32:51;;;;;;;67.50;36.37;;;;;;;3.81;97.52;100542.52;1408438;87;21286;-86
2022/01/01 00:35:18;;;;;;;64.87;39.03;;;;;;;3.80;97.29;100558.70;1408552;87;21279;-86
2022/01/01 00:37:45;;;;;;;68.33;41.27;;;;;;;3.75;97.50;100552.09;1408226;87;21331;-86
2022/01/01 00:40:12;;;;;;;70.50;39.63;;;;;;;3.68;97.61;100552.11;1408336;87;21205;-86
2022/01/01 00:42:39;;;;;;;63.37;37.23;;;;;;;3.68;97.80;100571.73;1408156;87;21925;-86
2022/01/01 00:45:07;;;;;;;62.83;37.90;;;;;;;3.66;98.26;100560.55;1408327;87;21338;-86
2022/01/01 00:47:34;;;;;;;65.13;37.23;;;;;;;3.61;99.10;100555.13;1408295;87;21294;-86
2022/01/01 00:50:02;;;;;;;59.23;40.27;;;;;;;3.57;99.56;100545.81;1408165;87;21240;-87
2022/01/01 00:52:30;;;;;;;53.33;35.23;;;;;;;3.56;100.00;100555.05;1408293;87;21279;-86
2022/01/01 00:54:56;;;;;;;70.00;40.00;;;;;;;3.54;100.00;100532.93;1408203;87;21235;-86
2022/01/01 00:57:25;;;;;;;67.07;38.03;;;;;;;3.53;100.00;100544.79;1408608;87;22241;-86
2022/01/01 00:59:52;;;;;;;54.70;33.67;;;;;;;3.57;100.00;100543.19;1366193;90;21345;-87
2022/01/01 01:02:19;;;;;;;56.73;34.60;;;;;;;3.59;100.00;100555.69;1369008;90;23111;-85
2022/01/01 01:04:46;;;;;;;59.23;31.90;;;;;;;3.63;100.00;100558.13;1371302;90;21300;-84
2022/01/01 01:07:15;;;;;;;46.10;30.17;;;;;;;3.61;100.00;100559.53;1383413;89;21330;-85
2022/01/01 01:09:42;;;;;;;55.73;33.77;;;;;;;3.59;100.00;100558.78;1386792;89;21213;-84
2022/01/01 01:12:09;;;;;;;48.03;29.93;;;;;;;3.59;100.00;100558.78;1385386;89;21346;-84
2022/01/01 01:14:41;;;;;;;57.00;35.47;;;;;;;3.57;100.00;100564.61;1385410;89;22137;-85
2022/01/01 01:17:06;;;;;;;55.37;33.37;;;;;;;3.57;100.00;100571.98;1362934;90;21458;-84
2022/01/01 01:19:34;;;;;;;57.83;34.30;;;;;;;3.60;100.00;100553.46;1362446;90;21967;-84
2022/01/01 01:22:01;;;;;;;56.53;35.23;;;;;;;3.62;100.00;100578.20;1365940;89;22411;-84
2022/01/01 01:24:28;;;;;;;51.20;31.90;;;;;;;3.62;100.00;100578.20;1367609;90;21338;-85
2022/01/01 01:27:00;;;;;;;49.73;31.40;;;;;;;3.66;100.00;100578.88;1387592;88;22276;-85
2022/01/01 01:29:24;;;;;;;55.40;34.43;;;;;;;3.67;100.00;100576.14;1387244;89;21278;-84
2022/01/01 01:31:51;;;;;;;49.87;32.10;;;;;;;3.67;100.00;100576.14;1387415;89;22291;-85
2022/01/01 01:34:19;;;;;;;54.87;31.97;;;;;;;3.67;100.00;100574.00;1387621;89;21366;-83
2022/01/01 01:36:46;;;;;;;50.13;30.43;;;;;;;3.73;100.00;100573.59;1387285;89;21293;-85
2022/01/01 01:39:13;;;;;;;54.43;33.47;;;;;;;3.74;100.00;100570.03;1388112;88;22307;-85
2022/01/01 01:41:43;;;;;;;50.93;32.03;;;;;;;3.80;100.00;100563.11;1388091;89;21404;-85
2022/01/01 01:44:32;;;;;;;52.90;33.17;;;;;;;3.88;100.00;100559.96;1387922;89;21311;-85
2022/01/01 01:47:02;;;;;;;45.27;28.97;;;;;;;3.88;100.00;100558.17;1388034;89;21367;-83
2022/01/01 01:49:30;;;;;;;43.45;29.90;;;;;;;3.92;100.00;100549.67;1388021;89;21369;-83
2022/01/01 01:51:57;;;;;;;47.63;31.67;;;;;;;3.96;100.00;100554.58;1388340;89;21324;-83
2022/01/01 01:54:25;;;;;;;44.43;29.70;;;;;;;4.01;100.00;100555.13;1388149;89;21324;-83
2022/01/01 01:56:52;;;;;;;45.50;29.47;;;;;;;4.04;100.00;100569.32;1387921;89;21223;-83
2022/01/01 01:59:20;;;;;;;45.10;28.00;;;;;;;4.04;100.00;100564.56;1387921;89;21253;-83
2022/01/01 02:01:47;;;;;;;48.07;31.43;;;;;;;4.05;100.00;100550.03;1387861;89;21334;-83
2022/01/01 02:04:14;;;;;;;52.07;31.63;;;;;;;4.05;100.00;100547.41;1388004;89;21400;-84
2022/01/01 02:06:42;;;;;;;46.00;29.53;;;;;;;4.05;100.00;100542.17;1387988;89;21386;-82
2022/01/01 02:09:11;;;;;;;42.83;26.70;;;;;;;4.09;100.00;100553.79;1387902;89;22640;-84
2022/01/01 02:11:39;;;;;;;45.60;27.67;;;;;;;4.06;99.85;100543.88;1387992;89;22233;-83
2022/01/01 02:17:08;;;;;;;42.87;27.70;;;;;;;4.11;100.00;100546.17;1387985;89;21331;-82
2022/01/01 02:19:27;;;;;;;35.53;24.70;;;;;;;4.14;99.98;100551.67;1384964;89;22365;-82
2022/01/01 02:22:01;;;;;;;39.40;26.07;;;;;;;4.05;98.96;100550.03;1368864;90;21402;-81
2022/01/01 02:24:27;;;;;;;39.37;28.07;;;;;;;3.97;98.72;100544.50;1384605;89;22352;-82
2022/01/01 02:26:54;;;;;;;43.00;27.77;;;;;;;3.92;98.61;100543.96;1408567;87;21381;-82
2022/01/01 02:29:21;;;;;;;40.17;25.73;;;;;;;3.87;98.57;100537.34;1409039;87;21440;-82
2022/01/01 02:31:50;;;;;;;37.57;23.87;;;;;;;3.82;98.82;100534.55;1405966;87;21630;-86
2022/01/01 02:34:18;;;;;;;35.33;23.80;;;;;;;3.81;98.63;100542.05;1408905;87;21445;-85
2022/01/01 02:36:46;;;;;;;37.87;24.10;;;;;;;3.74;98.51;100539.48;1409036;87;21452;-85
2022/01/01 02:39:22;;;;;;;34.80;22.13;;;;;;;3.63;98.89;100540.65;1408948;87;21397;-86
2022/01/01 02:41:53;;;;;;;38.33;24.17;;;;;;;3.51;98.88;100530.95;1409388;87;21257;-85
2022/01/01 02:44:22;;;;;;;38.10;25.77;;;;;;;3.51;99.35;100539.67;1392711;88;22006;-85
2022/01/01 02:46:56;;;;;;;47.30;29.63;;;;;;;3.46;99.83;100545.66;1409046;87;21332;-85
2022/01/01 02:49:24;;;;;;;45.40;28.57;;;;;;;3.46;100.00;100541.73;1408914;87;21346;-85
2022/01/01 02:51:51;;;;;;;41.13;25.57;;;;;;;3.46;100.00;100541.73;1408946;87;22214;-85
2022/01/01 02:54:18;;;;;;;42.30;27.13;;;;;;;3.46;100.00;100541.73;1409164;87;21242;-85
2022/01/01 02:56:45;;;;;;;38.30;25.00;;;;;;;3.41;100.00;100533.34;1409155;87;22071;-85
2022/01/01 02:59:12;;;;;;;41.33;25.83;;;;;;;3.41;100.00;100533.34;1409011;87;21220;-85
2022/01/01 03:01:39;;;;;;;40.77;25.30;;;;;;;3.40;100.00;100526.44;1409311;87;22245;-85
2022/01/01 03:04:06;;;;;;;43.20;26.97;;;;;;;3.51;100.00;100516.56;1408917;87;21445;-85
2022/01/01 03:06:34;;;;;;;45.90;25.53;;;;;;;3.51;100.00;100516.56;1409172;87;21420;-84
2022/01/01 03:09:01;;;;;;;41.70;25.77;;;;;;;3.50;99.87;100506.57;1409204;87;21368;-85
2022/01/01 03:11:28;;;;;;;39.07;24.70;;;;;;;3.56;99.83;100515.80;1408856;87;21438;-84
2022/01/01 03:13:55;;;;;;;42.90;26.33;;;;;;;3.65;100.00;100506.50;1392707;88;21467;-85
2022/01/01 03:16:22;;;;;;;38.57;24.30;;;;;;;3.69;99.99;100506.21;1408963;87;21437;-84
2022/01/01 03:18:49;;;;;;;42.13;24.23;;;;;;;3.67;99.08;100507.25;1408886;87;21423;-85
2022/01/01 03:21:16;;;;;;;38.57;25.17;;;;;;;3.65;98.98;100510.43;1393168;87;21341;-85
2022/01/01 03:23:43;;;;;;;38.97;24.80;;;;;;;3.66;98.69;100514.27;1411012;87;21253;-84
2022/01/01 03:26:11;;;;;;;42.20;26.30;;;;;;;3.68;98.56;100507.61;1411057;87;21438;-84
2022/01/01 03:28:38;;;;;;;38.87;23.50;;;;;;;3.71;98.82;100504.34;1410959;87;22229;-84
2022/01/01 03:31:05;;;;;;;37.00;22.53;;;;;;;3.71;98.63;100512.64;1411020;87;21385;-85
2022/01/01 03:33:32;;;;;;;39.90;23.20;;;;;;;3.59;98.01;100519.05;1410900;87;21356;-84
2022/01/01 03:35:59;;;;;;;42.33;25.43;;;;;;;3.56;97.96;100515.33;1410971;87;21301;-84
2022/01/01 03:38:26;;;;;;;40.67;24.27;;;;;;;3.55;98.23;100509.73;1411055;87;21309;-85
2022/01/01 03:40:53;;;;;;;45.20;27.43;;;;;;;3.65;98.79;100518.28;1410993;87;21287;-84
2022/01/01 03:43:20;;;;;;;42.73;25.33;;;;;;;3.72;99.11;100528.26;1411162;87;21249;-84
2022/01/01 03:45:47;;;;;;;36.60;23.43;;;;;;;3.65;98.37;100533.98;1390858;88;22314;-84
2022/01/01 03:48:14;;;;;;;40.67;24.70;;;;;;;3.65;97.90;100542.67;1410999;87;22381;-85
2022/01/01 03:50:42;;;;;;;38.43;22.60;;;;;;;3.61;97.60;100556.44;1410982;87;21228;-84
2022/01/01 03:53:11;;;;;;;45.57;28.10;;;;;;;3.51;97.92;100539.67;1410921;87;21228;-85
2022/01/01 03:55:38;;;;;;;45.67;26.50;;;;;;;3.53;97.69;100540.31;1411028;87;21250;-86
2022/01/01 03:58:05;;;;;;;35.87;21.50;;;;;;;3.51;97.69;100534.44;1411129;87;21324;-85
2022/01/01 04:00:32;;;;;;;34.83;21.50;;;;;;;3.42;98.18;100536.31;1411038;87;21205;-84
2022/01/01 04:03:10;;;;;;;35.73;21.63;;;;;;;3.42;98.18;100536.31;1410920;87;21368;-84
2022/01/01 04:05:40;;;;;;;43.07;23.83;;;;;;;3.42;98.04;100562.95;1410724;87;21265;-85
2022/01/01 04:08:09;;;;;;;40.60;24.33;;;;;;;3.35;97.95;100565.14;1411043;87;21214;-85
2022/01/01 04:10:37;;;;;;;34.73;22.73;;;;;;;3.30;98.46;100556.73;1411182;87;22254;-84
2022/01/01 04:13:07;;;;;;;34.17;21.00;;;;;;;3.30;98.44;100561.97;1411144;87;21324;-85
2022/01/01 04:15:36;;;;;;;35.53;22.67;;;;;;;3.28;98.62;100561.22;1411341;87;21227;-86
2022/01/01 04:18:10;;;;;;;33.27;20.63;;;;;;;3.28;98.62;100561.22;1410919;87;21243;-86
2022/01/01 04:20:33;;;;;;;34.73;21.42;;;;;;;3.31;98.78;100553.17;1410537;87;21316;-86
2022/01/01 04:23:01;;;;;;;36.83;20.90;;;;;;;3.34;98.80;100554.31;1409547;87;21353;-86
2022/01/01 04:25:28;;;;;;;40.40;23.40;;;;;;;3.35;98.47;100555.98;1408571;87;21250;-85
2022/01/01 04:27:56;;;;;;;41.47;23.33;;;;;;;3.29;98.34;100564.22;1408314;87;21316;-85
2022/01/01 04:30:25;;;;;;;37.77;23.20;;;;;;;3.33;98.49;100574.84;1408692;87;21924;-83
2022/01/01 04:32:52;;;;;;;36.10;22.87;;;;;;;3.30;98.58;100573.73;1408501;87;21410;-84
2022/01/01 04:35:19;;;;;;;40.63;24.63;;;;;;;3.31;98.40;100570.17;1408300;87;22078;-84
2022/01/01 04:37:46;;;;;;;37.10;23.03;;;;;;;3.36;98.70;100574.66;1408647;87;21279;-85
2022/01/01 04:40:14;;;;;;;36.33;22.70;;;;;;;3.42;98.98;100583.41;1408256;87;21161;-87
2022/01/01 04:42:41;;;;;;;35.07;22.47;;;;;;;3.42;98.66;100584.72;1408635;87;23333;-88
2022/01/01 04:45:09;;;;;;;35.53;21.87;;;;;;;3.40;98.38;100580.08;1408817;87;21390;-87
2022/01/01 04:47:36;;;;;;;35.50;21.60;;;;;;;3.42;98.37;100597.80;1408450;87;21382;-88
2022/01/01 04:50:05;;;;;;;34.93;22.10;;;;;;;3.40;98.20;100603.63;1408338;87;21982;-87
2022/01/01 04:52:32;;;;;;;32.70;19.93;;;;;;;3.37;98.01;100607.75;1408432;87;21324;-86
2022/01/01 04:54:59;;;;;;;35.60;22.80;;;;;;;3.26;97.76;100589.27;1408475;87;21241;-87
2022/01/01 04:57:30;;;;;;;34.27;22.10;;;;;;;3.29;97.73;100598.23;1408841;87;21923;-87
2022/01/01 04:59:57;;;;;;;29.90;18.43;;;;;;;3.27;97.97;100604.02;1408125;87;21309;-88
2022/01/01 05:02:26;;;;;;;34.07;20.97;;;;;;;3.21;98.56;100620.09;1408751;87;21346;-87
2022/01/01 05:04:54;;;;;;;32.57;20.57;;;;;;;3.18;98.48;100601.98;1408175;87;21265;-87
2022/01/01 05:07:21;;;;;;;38.47;23.87;;;;;;;3.24;98.30;100591.13;1408747;87;21287;-87
2022/01/01 05:09:49;;;;;;;34.50;22.17;;;;;;;3.24;98.30;100591.13;1408382;87;21333;-87
2022/01/01 05:12:16;;;;;;;33.93;21.80;;;;;;;3.26;98.64;100591.13;1408471;87;22262;-87
2022/01/01 05:14:44;;;;;;;33.77;21.87;;;;;;;3.24;98.29;100585.90;1391452;89;21415;-87
2022/01/01 05:17:12;;;;;;;34.87;21.67;;;;;;;3.26;98.28;100589.27;1408345;87;21311;-84
2022/01/01 05:19:39;;;;;;;30.17;18.23;;;;;;;3.30;98.20;100599.42;1408452;87;21213;-84
2022/01/01 05:22:06;;;;;;;32.83;19.80;;;;;;;3.26;97.71;100610.20;1408729;87;21427;-84
2022/01/01 05:24:33;;;;;;;33.40;21.53;;;;;;;3.10;97.70;100618.98;1411060;87;21250;-84
2022/01/01 05:27:00;;;;;;;34.87;20.10;;;;;;;3.10;97.70;100618.98;1410996;87;21227;-84
2022/01/01 05:29:27;;;;;;;33.50;20.97;;;;;;;3.12;98.11;100635.42;1410846;87;21908;-85
2022/01/01 05:31:55;;;;;;;37.10;21.37;;;;;;;3.10;98.10;100633.36;1411063;87;21944;-85
2022/01/01 05:34:22;;;;;;;35.40;21.73;;;;;;;3.13;98.36;100626.63;1411100;87;21871;-85
2022/01/01 05:36:49;;;;;;;32.73;19.47;;;;;;;3.13;98.28;100628.41;1410997;87;21227;-86
2022/01/01 05:39:16;;;;;;;37.10;22.83;;;;;;;3.18;98.52;100633.37;1410828;87;21981;-86
2022/01/01 05:41:43;;;;;;;39.47;21.37;;;;;;;3.21;98.43;100622.72;1410782;87;23326;-86
2022/01/01 05:44:10;;;;;;;35.37;21.77;;;;;;;3.22;98.47;100633.54;1410928;87;21272;-86
2022/01/01 05:46:37;;;;;;;38.00;20.93;;;;;;;3.18;98.16;100655.60;1410877;87;21924;-86
2022/01/01 05:49:04;;;;;;;39.93;23.07;;;;;;;3.16;98.14;100646.09;1407941;87;22013;-85
2022/01/01 05:51:31;;;;;;;35.37;23.13;;;;;;;3.18;98.20;100645.97;1411123;87;22848;-85
2022/01/01 05:53:58;;;;;;;43.37;24.13;;;;;;;3.13;97.72;100652.78;1410983;87;21969;-85
2022/01/01 05:56:25;;;;;;;34.33;22.03;;;;;;;3.14;97.67;100659.72;1411192;87;21227;-85
2022/01/01 05:58:52;;;;;;;38.77;24.70;;;;;;;3.14;97.67;100659.72;1410849;87;21242;-85
2022/01/01 06:01:19;;;;;;;38.00;22.77;;;;;;;3.22;97.84;100670.99;1411035;87;23385;-85
2022/01/01 06:03:46;;;;;;;36.93;23.10;;;;;;;3.20;97.58;100677.28;1410835;87;21976;-86
2022/01/01 06:06:13;;;;;;;37.00;23.50;;;;;;;3.17;97.31;100666.54;1411042;87;21939;-84
2022/01/01 06:08:40;;;;;;;37.30;23.73;;;;;;;3.15;97.37;100671.84;1408253;87;21945;-84
2022/01/01 06:11:07;;;;;;;37.97;22.53;;;;;;;3.16;97.43;100674.86;1411123;87;22218;-85
2022/01/01 06:13:34;;;;;;;36.40;22.17;;;;;;;3.15;97.35;100683.62;1411362;87;22841;-84
2022/01/01 06:16:01;;;;;;;40.17;23.80;;;;;;;3.10;97.23;100684.36;1411010;87;21982;-84
2022/01/01 06:18:28;;;;;;;43.87;27.50;;;;;;;3.10;97.23;100684.36;1411751;87;21213;-84
2022/01/01 06:20:56;;;;;;;43.87;25.40;;;;;;;3.10;97.25;100685.66;1411378;87;22087;-84
2022/01/01 06:23:23;;;;;;;45.40;27.27;;;;;;;3.05;97.17;100682.95;1391525;88;21381;-83
2022/01/01 06:25:50;;;;;;;52.90;29.70;;;;;;;3.05;97.17;100682.95;1372563;89;21367;-85
2022/01/01 06:28:17;;;;;;;56.17;33.00;;;;;;;3.00;96.86;100686.34;1360440;91;21353;-84
2022/01/01 06:30:45;;;;;;;39.30;23.23;;;;;;;3.00;96.86;100686.34;1373102;89;21323;-84
2022/01/01 06:33:17;;;;;;;40.33;24.03;;;;;;;3.01;96.72;100699.30;1372628;89;23390;-84
2022/01/01 06:35:46;;;;;;;38.17;24.33;;;;;;;2.93;96.53;100699.78;1372292;89;22918;-84
2022/01/01 06:38:13;;;;;;;47.30;28.40;;;;;;;2.86;96.52;100706.77;1372487;89;22031;-84
2022/01/01 06:40:42;;;;;;;43.57;24.10;;;;;;;2.85;96.96;100705.94;1372233;89;21300;-84
2022/01/01 06:43:13;;;;;;;41.03;23.03;;;;;;;2.90;97.31;100706.95;1372373;89;21978;-84
2022/01/01 06:45:41;;;;;;;44.30;26.17;;;;;;;2.97;97.65;100708.28;1372076;89;22083;-84
2022/01/01 06:48:08;;;;;;;51.60;28.50;;;;;;;2.93;96.99;100705.45;1372381;90;21384;-83
2022/01/01 06:50:37;;;;;;;45.33;26.47;;;;;;;2.88;96.57;100704.91;1372395;89;22122;-84
2022/01/01 06:53:04;;;;;;;33.07;23.00;;;;;;;2.88;96.97;100704.44;1372477;89;21988;-83
2022/01/01 06:55:32;;;;;;;38.37;23.03;;;;;;;2.89;96.99;100717.88;1372636;89;22073;-84
2022/01/01 06:57:59;;;;;;;43.23;25.80;;;;;;;2.77;96.62;100722.53;1372342;89;22075;-84
2022/01/01 07:00:26;;;;;;;42.70;23.63;;;;;;;2.79;96.94;100717.20;1372396;89;22037;-83
2022/01/01 07:02:53;;;;;;;36.07;23.60;;;;;;;2.79;97.13;100714.59;1372461;89;22031;-83
2022/01/01 07:05:20;;;;;;;34.33;21.30;;;;;;;2.77;97.08;100716.00;1372226;89;23065;-84
2022/01/01 07:07:47;;;;;;;37.60;22.07;;;;;;;2.71;96.79;100719.81;1372526;89;22021;-83
2022/01/01 07:10:14;;;;;;;38.70;23.57;;;;;;;2.70;97.30;100716.84;1372240;89;21934;-83
2022/01/01 07:12:42;;;;;;;39.07;23.57;;;;;;;2.75;97.51;100717.02;1372451;89;21986;-83
2022/01/01 07:15:10;;;;;;;35.53;22.97;;;;;;;2.79;97.56;100723.73;1360689;90;22038;-83
2022/01/01 07:17:37;;;;;;;31.23;19.27;;;;;;;2.80;97.13;100730.66;1372132;89;22104;-83
2022/01/01 07:20:06;;;;;;;34.67;21.80;;;;;;;2.79;97.18;100725.04;1372343;89;21982;-85
2022/01/01 07:22:43;;;;;;;26.27;17.00;;;;;;;2.80;97.02;100738.50;1372259;88;22139;-84
2022/01/01 07:25:12;;;;;;;18.23;12.73;;;;;;;2.68;97.15;100755.28;1375774;89;23093;-84
2022/01/01 07:27:40;;;;;;;24.23;15.23;;;;;;;2.69;97.24;100741.73;1376694;89;23077;-84
2022/01/01 07:30:09;;;;;;;18.67;11.90;;;;;;;2.74;97.39;100740.18;1370554;89;22134;-84
2022/01/01 07:32:42;;;;;;;16.53;11.70;;;;;;;2.82;97.65;100750.56;1352411;91;22043;-84
2022/01/01 07:35:11;;;;;;;22.33;11.60;;;;;;;2.88;97.37;100757.20;1369793;90;22087;-84
2022/01/01 07:37:38;;;;;;;18.90;11.80;;;;;;;2.88;96.57;100756.73;1373424;90;23152;-85
2022/01/01 07:40:09;;;;;;;20.93;15.43;;;;;;;2.90;96.75;100754.01;1358244;89;23432;-84
2022/01/01 07:42:36;;;;;;;29.82;16.42;;;;;;;2.97;97.03;100744.89;1373186;90;22038;-85
2022/01/01 07:45:05;;;;;;;23.00;15.10;;;;;;;3.02;96.75;100754.61;1370961;90;21441;-85
2022/01/01 07:47:32;;;;;;;28.50;16.73;;;;;;;3.11;96.76;100738.64;1370571;90;22126;-85
2022/01/01 07:49:59;;;;;;;19.80;13.00;;;;;;;3.21;97.09;100738.64;1370545;90;21463;-85
2022/01/01 07:52:26;;;;;;;24.40;16.33;;;;;;;3.16;94.16;100748.09;1370553;90;22339;-86
2022/01/01 07:54:53;;;;;;;26.30;17.30;;;;;;;3.16;94.40;100748.09;1352035;91;21449;-84
2022/01/01 07:57:20;;;;;;;21.47;14.03;;;;;;;3.27;95.45;100748.73;1352554;92;21648;-85
2022/01/01 07:59:47;;;;;;;21.43;14.80;;;;;;;3.24;94.03;100750.70;1370394;90;21494;-85
2022/01/01 08:02:14;;;;;;;22.23;13.23;;;;;;;3.10;93.77;100760.20;1370928;90;21316;-85
2022/01/01 08:04:41;;;;;;;21.83;14.20;;;;;;;2.99;94.86;100786.14;1370230;90;22439;-86
2022/01/01 08:07:08;;;;;;;20.73;14.53;;;;;;;2.98;95.19;100780.55;1371751;90;21323;-85
2022/01/01 08:09:38;;;;;;;17.97;12.17;;;;;;;3.02;95.53;100765.08;1371563;90;21392;-84
2022/01/01 08:12:07;;;;;;;21.77;14.33;;;;;;;3.10;95.59;100761.98;1370387;90;21352;-85
2022/01/01 08:14:34;;;;;;;18.73;12.53;;;;;;;3.15;95.70;100755.55;1370523;90;22210;-83
2022/01/01 08:17:05;;;;;;;15.63;10.83;;;;;;;3.27;96.02;100760.97;1370765;90;21287;-83
2022/01/01 08:19:33;;;;;;;18.02;11.97;;;;;;;3.32;95.62;100766.78;1352299;92;21489;-84
2022/01/01 08:22:00;;;;;;;17.60;11.47;;;;;;;3.35;95.33;100769.20;1370488;90;21632;-85
2022/01/01 08:24:28;;;;;;;19.27;11.40;;;;;;;3.37;95.27;100768.18;1370724;88;21584;-85
2022/01/01 08:26:55;;;;;;;16.90;11.70;;;;;;;3.32;93.86;100781.17;1393309;88;21333;-85
2022/01/01 08:29:23;;;;;;;22.87;14.07;;;;;;;3.20;93.67;100779.30;1375785;90;21251;-85
2022/01/01 08:31:51;;;;;;;22.40;12.77;;;;;;;3.24;94.57;100763.78;1393763;88;21288;-84
2022/01/01 08:34:19;;;;;;;17.23;11.60;;;;;;;3.31;94.83;100774.23;1394127;88;21412;-85
2022/01/01 08:36:46;;;;;;;17.37;12.60;;;;;;;3.36;94.67;100782.65;1393368;88;21347;-90
2022/01/01 08:39:15;;;;;;;23.03;14.07;;;;;;;3.42;94.87;100779.66;1394684;88;21288;-89
2022/01/01 08:41:44;;;;;;;18.13;12.53;;;;;;;3.54;95.16;100780.24;1393095;88;21437;-88
2022/01/01 08:44:13;;;;;;;17.87;11.63;;;;;;;3.66;95.25;100770.80;1405280;84;21566;-95
2022/01/01 08:46:40;;;;;;;17.10;12.57;;;;;;;3.79;95.03;100778.71;1404980;84;21522;-96
2022/01/01 08:51:44;;;;;;;407.93;187.90;;;;;;;3.73;92.76;100779.09;1431711;84;21582;-88
2022/01/01 08:54:35;;;;;;;26.07;15.60;;;;;;;3.87;93.64;100775.63;1517830;84;22721;-88
2022/01/01 08:57:02;;;;;;;34.87;18.43;;;;;;;3.87;92.94;100775.16;1491793;86;21507;-88
2022/01/01 08:59:28;;;;;;;20.70;12.77;;;;;;;3.87;91.87;100788.25;1491552;86;22586;-88
2022/01/01 09:01:54;;;;;;;23.23;14.93;;;;;;;3.91;92.67;100783.17;1492085;86;21522;-88
2022/01/01 09:04:20;;;;;;;25.10;15.93;;;;;;;3.98;93.24;100783.18;1480749;86;21471;-88
2022/01/01 09:06:47;;;;;;;23.00;15.97;;;;;;;4.02;92.81;100795.60;1480724;86;21488;-88
2022/01/01 09:09:13;;;;;;;25.60;15.93;;;;;;;4.02;92.41;100776.80;1487790;86;22350;-88
2022/01/01 09:11:39;;;;;;;36.10;19.03;;;;;;;4.00;92.40;100786.55;1426916;90;21474;-88
2022/01/01 09:14:05;;;;;;;27.70;18.43;;;;;;;3.95;92.75;100788.61;1484503;86;22464;-87
2022/01/01 09:16:32;;;;;;;29.67;17.40;;;;;;;3.92;92.96;100786.19;1472073;86;21478;-87
2022/01/01 09:18:58;;;;;;;20.00;14.47;;;;;;;3.87;92.88;100801.81;1467110;86;21658;-87
2022/01/01 09:21:27;;;;;;;21.33;14.00;;;;;;;3.83;92.89;100805.09;1481338;86;22416;-87
2022/01/01 09:23:54;;;;;;;24.07;15.30;;;;;;;3.86;93.58;100802.28;1460018;89;21657;-86
2022/01/01 09:26:21;;;;;;;31.53;18.57;;;;;;;3.90;93.90;100815.55;1492021;86;21595;-88
2022/01/01 09:28:47;;;;;;;31.70;20.27;;;;;;;3.99;94.29;100816.75;1481279;86;21530;-88
2022/01/01 09:31:13;;;;;;;31.70;19.30;;;;;;;4.01;94.28;100817.03;1433528;89;21526;-87
2022/01/01 09:33:39;;;;;;;28.80;17.50;;;;;;;4.04;94.43;100807.67;1486804;87;21703;-87
2022/01/01 09:36:07;;;;;;;24.17;16.23;;;;;;;4.01;94.04;100810.96;1437583;89;21464;-87
2022/01/01 09:38:34;;;;;;;29.20;19.23;;;;;;;4.02;94.40;100803.46;1492834;86;22461;-85
2022/01/01 09:41:03;;;;;;;24.70;16.47;;;;;;;4.06;94.33;100796.64;1487744;86;21597;-88
2022/01/01 09:43:32;;;;;;;24.57;16.37;;;;;;;4.12;94.51;100803.27;1473588;86;21503;-85
2022/01/01 09:46:00;;;;;;;25.17;17.33;;;;;;;4.19;94.37;100820.73;1493902;86;22325;-88
2022/01/01 09:48:27;;;;;;;20.47;14.07;;;;;;;4.15;93.98;100814.03;1496854;86;21463;-89
2022/01/01 09:50:58;;;;;;;27.93;18.70;;;;;;;4.16;94.38;100812.60;1478606;86;21503;-90
2022/01/01 09:53:26;;;;;;;42.30;27.37;;;;;;;4.11;94.55;100804.66;1459718;87;23437;-89
2022/01/01 09:55:55;;;;;;;40.33;22.83;;;;;;;4.07;94.93;100804.02;1483010;86;21637;-92
2022/01/01 09:58:25;;;;;;;37.60;22.37;;;;;;;4.06;95.82;100812.83;1445268;89;22283;-87
2022/01/01 10:00:52;;;;;;;23.63;15.07;;;;;;;4.02;96.01;100808.23;1488441;86;22416;-87
2022/01/01 10:03:44;;;;;;;19.50;11.87;;;;;;;4.01;96.11;100798.70;1488117;86;21643;-88
2022/01/01 10:06:23;;;;;;;19.30;11.77;;;;;;;3.97;95.53;100801.16;1499080;86;22488;-88
2022/01/01 10:08:57;;;;;;;18.10;13.80;;;;;;;4.03;95.95;100790.76;1480284;86;21599;-88
2022/01/01 10:11:24;;;;;;;14.00;11.43;;;;;;;4.07;95.47;100783.90;1471154;87;21601;-89
2022/01/01 10:13:51;;;;;;;14.23;11.13;;;;;;;4.17;95.74;100789.86;1480065;86;22482;-89
2022/01/01 10:16:19;;;;;;;14.50;11.13;;;;;;;4.23;95.59;100788.16;1481979;87;21974;-90
2022/01/01 10:18:48;;;;;;;16.43;11.63;;;;;;;4.27;95.26;100773.46;1440142;90;21523;-90
2022/01/01 10:21:19;;;;;;;12.97;9.97;;;;;;;4.32;95.50;100781.52;1459006;88;21633;-89
2022/01/01 10:23:51;;;;;;;22.65;16.20;;;;;;;4.40;95.92;100803.67;1481232;87;21615;-94
2022/01/01 10:29:24;;;;;;;17.43;12.07;;;;;;;4.62;95.37;100812.75;1497425;87;21649;-94
2022/01/01 10:32:04;;;;;;;15.97;11.57;;;;;;;4.70;95.40;100819.65;1442500;89;21473;-93
2022/01/01 10:34:38;;;;;;;17.53;13.53;;;;;;;4.74;94.95;100825.88;1501224;86;21515;-93
2022/01/01 10:37:06;;;;;;;29.63;18.23;;;;;;;4.70;94.75;100833.59;1484744;86;21492;-93
2022/01/01 10:39:32;;;;;;;17.73;12.63;;;;;;;4.71;94.86;100831.80;1473244;87;21589;-92
2022/01/01 10:42:04;;;;;;;19.67;14.03;;;;;;;4.65;94.55;100830.90;1458124;87;21456;-94
2022/01/01 10:44:39;;;;;;;15.47;12.00;;;;;;;4.62;94.48;100828.00;1493483;86;21492;-90
2022/01/01 10:47:09;;;;;;;13.70;10.67;;;;;;;4.59;94.78;100811.64;1487027;87;21800;-93
2022/01/01 10:52:27;;;;;;;19.73;11.13;;;;;;;4.61;95.37;100830.73;1494153;87;21653;-94
2022/01/01 10:54:57;;;;;;;13.50;10.17;;;;;;;4.67;95.71;100813.30;1491420;86;21551;-94
2022/01/01 10:57:42;;;;;;;11.30;8.67;;;;;;;4.68;95.58;100791.37;1479022;87;21591;-95
2022/01/01 11:00:20;;;;;;;12.10;10.70;;;;;;;4.64;95.51;100796.45;1491547;87;21633;-95
2022/01/01 11:02:58;;;;;;;18.47;11.77;;;;;;;4.64;95.26;100797.77;1479083;87;21378;-94
2022/01/01 11:05:33;;;;;;;13.63;11.30;;;;;;;4.66;95.61;100805.04;1472183;87;21463;-94
2022/01/01 11:08:02;;;;;;;22.07;14.80;;;;;;;4.72;95.41;100798.11;1504623;86;21434;-94
2022/01/01 11:10:29;;;;;;;18.63;12.73;;;;;;;4.71;95.01;100799.86;1452596;90;21539;-89
2022/01/01 11:12:59;;;;;;;22.40;16.23;;;;;;;4.68;94.98;100796.61;1482882;87;21422;-92
2022/01/01 11:15:29;;;;;;;24.97;15.60;;;;;;;4.69;94.80;100798.28;1485097;87;21733;-93
2022/01/01 11:17:57;;;;;;;21.57;14.80;;;;;;;4.66;95.27;100788.00;1454866;87;21399;-92
2022/01/01 11:20:25;;;;;;;43.63;22.03;;;;;;;4.62;95.01;100787.84;1476103;86;21507;-86
2022/01/01 11:22:51;;;;;;;19.60;15.13;;;;;;;4.59;95.29;100786.73;1482577;86;22778;-87
2022/01/01 11:25:19;;;;;;;15.00;11.00;;;;;;;4.53;95.37;100782.25;1448698;90;21545;-88
2022/01/01 11:27:46;;;;;;;17.20;13.47;;;;;;;4.46;95.59;100778.37;1485918;86;21569;-89
2022/01/01 11:30:13;;;;;;;19.17;14.93;;;;;;;4.47;95.87;100790.52;1480649;86;21452;-88
2022/01/01 11:32:54;;;;;;;20.23;14.50;;;;;;;4.53;96.29;100791.43;1477777;86;21503;-88